Station CPVM2 - 8575437 - Chesapeake Bay Bridge Visibility, MD Image indicating link to RSS feed of recent meteorological observations for station CPVM2


Conditions at CPVM2 as of
(1:00 pm EDT)
1700 GMT on 05/20/2024:
     

Click on the graph icon in the table below to see a time series plot of the last five days of that observation.

5-day plot - Air Temperature Air Temperature (ATMP): 64.4 °F
5-day plot - Dew Point Dew Point (DEWP): 59.5 °F
5-day plot - Visibility Visibility (VIS): 5.9 nmi
NOS Water Level Observation Network Water Level
Previous observations
TIME
(EDT)
5-day plot - Wind Direction
WDIR
 
5-day plot - Wind Speed
WSPD
kts
5-day plot - Wind Gust
GST
kts
5-day plot - Wave Height
WVHT
ft
5-day plot - Dominant Wave Period
DPD
sec
5-day plot - Average Wave Period
APD
sec
5-day plot - Mean Wave Direction
MWD
 
5-day plot - Atmospheric Pressure
PRES
in
5-day plot - Pressure Tendency
PTDY
in
5-day plot - Air Temperature
ATMP
°F
5-day plot - Water Temperature
WTMP
°F
5-day plot - Dew Point
DEWP
°F
5-day plot - Salinity
SAL
psu
5-day plot - Visibility
VIS
nmi
5-day plot - Tide (above MLLW)
TIDE
ft
2024-05-20 12:54 pm--------- 64.6- 59.5- 5.9-
2024-05-20 12:48 pm--------- 64.9- 59.9- 5.9-
2024-05-20 12:42 pm--------- 64.2- 58.8- 5.9-
2024-05-20 12:36 pm--------- 65.1- 59.2- 5.9-
2024-05-20 12:30 pm--------- 65.5- 60.1- 5.9-
2024-05-20 12:24 pm--------- 64.0- 59.0- 5.9-
2024-05-20 12:18 pm--------- 64.6- 59.4- 5.9-
2024-05-20 12:12 pm--------- 64.4- 58.6- 5.9-
2024-05-20 12:06 pm--------- 64.0- 59.2- 5.9-
2024-05-20 12:00 pm--------- 64.0- 59.0- 5.9-
2024-05-20 11:54 am--------- 64.0- 58.8- 5.9-
2024-05-20 11:48 am--------- 64.8- 59.4- 5.9-
2024-05-20 11:42 am--------- 63.5- 59.0- 5.9-
2024-05-20 11:36 am--------- 63.1- 58.8- 5.9-
2024-05-20 11:30 am--------- 62.4- 57.9- 5.9-
2024-05-20 11:24 am--------- 62.6- 58.1- 4.9-
2024-05-20 11:18 am--------- 62.8- 58.5- 4.3-
2024-05-20 11:12 am--------- 62.4- 57.7- 3.2-
2024-05-20 11:06 am--------- 62.8- 58.3- 5.9-
2024-05-20 11:00 am--------- 63.0- 58.6- 0.4-
2024-05-20 10:54 am--------- 62.4- 58.1---
2024-05-20 10:48 am--------- 62.6- 58.5---
2024-05-20 10:42 am--------- 62.1- 57.9- 5.9-
2024-05-20 10:36 am--------- 61.9- 57.9- 5.9-
2024-05-20 10:30 am--------- 61.7- 57.7- 5.9-
2024-05-20 10:24 am--------- 61.5- 57.4- 5.9-
2024-05-20 10:18 am--------- 62.4- 58.1- 5.9-
2024-05-20 10:12 am--------- 62.2- 58.1- 5.9-
2024-05-20 10:06 am--------- 61.3- 57.4- 5.9-
2024-05-20 10:00 am--------- 61.3- 57.6- 5.9-
2024-05-20 09:54 am--------- 61.0- 57.4- 5.9-
2024-05-20 09:48 am--------- 61.3- 57.7- 5.9-
2024-05-20 09:42 am--------- 60.8- 57.2- 5.9-
2024-05-20 09:36 am--------- 60.8- 57.2- 5.9-
2024-05-20 09:30 am--------- 61.2- 57.7- 5.9-
2024-05-20 09:24 am--------- 61.0- 57.4- 5.9-
2024-05-20 09:18 am--------- 60.8- 57.6- 5.9-
2024-05-20 09:12 am--------- 60.3- 56.8- 5.9-
2024-05-20 09:06 am--------- 60.6- 57.4- 5.9-
2024-05-20 09:00 am--------- 60.8- 57.4---
2024-05-20 08:54 am--------- 60.4- 57.2- 5.9-
2024-05-20 08:48 am--------- 60.3- 56.8- 5.9-
2024-05-20 08:42 am--------- 60.4- 57.2- 5.9-
2024-05-20 08:36 am--------- 60.1- 57.0- 5.9-
2024-05-20 08:30 am--------- 60.1- 57.2- 5.9-
2024-05-20 08:24 am--------- 59.7- 56.8- 5.9-
2024-05-20 08:18 am--------- 59.7- 56.8- 5.9-
2024-05-20 08:12 am--------- 59.7- 56.8- 5.9-
2024-05-20 08:06 am--------- 59.9- 57.2- 5.9-
2024-05-20 08:00 am--------- 59.7- 57.0- 5.9-
2024-05-20 07:54 am--------- 59.7- 57.2- 5.9-
2024-05-20 07:48 am--------- 59.7- 57.2- 5.9-
2024-05-20 07:42 am--------- 59.5- 57.0- 5.9-
2024-05-20 07:36 am--------- 59.5- 56.8- 5.9-
2024-05-20 07:30 am--------- 59.4- 56.7- 5.9-
2024-05-20 07:24 am--------- 59.4- 57.0- 5.9-
2024-05-20 07:18 am--------- 59.2- 56.8- 5.9-
2024-05-20 07:12 am--------- 59.2- 57.0- 5.9-
2024-05-20 07:06 am--------- 59.2- 57.2- 5.9-
2024-05-20 07:00 am--------- 59.2- 57.2- 5.9-
2024-05-20 06:54 am--------- 59.0- 57.2- 5.9-
2024-05-20 06:48 am--------- 59.2- 57.6- 5.9-
2024-05-20 06:42 am--------- 59.0- 57.4- 5.9-
2024-05-20 06:36 am--------- 58.8- 57.2- 5.9-
2024-05-20 06:30 am--------- 58.8- 57.2- 5.9-
2024-05-20 06:24 am--------- 58.8- 57.2- 5.9-
2024-05-20 06:18 am--------- 59.0- 57.4- 5.9-
2024-05-20 06:12 am--------- 58.8- 57.2- 5.9-
2024-05-20 06:06 am--------- 58.6- 57.2- 5.9-
2024-05-20 06:00 am--------- 58.8- 57.4- 5.9-
2024-05-20 05:54 am--------- 58.8- 57.4- 5.9-
2024-05-20 05:48 am--------- 58.6- 57.2- 5.9-
2024-05-20 05:42 am--------- 58.6- 57.0- 5.9-
2024-05-20 05:36 am--------- 58.8- 57.2- 5.9-
2024-05-20 05:30 am--------- 58.8- 57.2- 5.9-
2024-05-20 05:24 am--------- 58.8- 57.2- 5.9-
2024-05-20 05:18 am--------- 59.2- 57.6- 5.9-
2024-05-20 05:12 am--------- 59.2- 57.6- 5.9-
2024-05-20 05:06 am--------- 59.2- 57.6- 5.9-
2024-05-20 05:00 am--------- 59.2- 57.4- 5.9-
2024-05-20 04:54 am--------- 59.2- 57.4- 5.9-
2024-05-20 04:48 am--------- 59.5- 57.7- 5.9-
2024-05-20 04:42 am--------- 59.7- 57.9- 5.9-
2024-05-20 04:36 am--------- 59.7- 57.9- 5.9-
2024-05-20 04:30 am--------- 60.3- 58.6- 5.9-
2024-05-20 04:24 am--------- 60.3- 58.5- 5.9-
2024-05-20 04:18 am--------- 59.9- 57.9- 5.9-
2024-05-20 04:12 am--------- 60.3- 58.6- 5.9-
2024-05-20 04:06 am--------- 60.3- 58.8- 5.9-
2024-05-20 04:00 am--------- 60.3- 58.6- 5.9-
2024-05-20 03:54 am--------- 60.3- 58.6- 5.9-
2024-05-20 03:48 am--------- 60.3- 58.5- 5.9-
2024-05-20 03:42 am--------- 60.3- 58.3- 5.9-
2024-05-20 03:36 am--------- 60.3- 58.3- 5.9-
2024-05-20 03:30 am--------- 60.3- 58.5- 5.9-
2024-05-20 03:24 am--------- 60.4- 58.6- 5.9-
2024-05-20 03:18 am--------- 60.4- 58.6- 5.9-
2024-05-20 03:12 am--------- 60.8- 58.6- 5.9-
2024-05-20 03:06 am--------- 60.8- 58.5- 5.9-
2024-05-20 03:00 am--------- 61.0- 58.5- 5.9-
2024-05-20 02:54 am--------- 61.0- 58.5- 5.9-
2024-05-20 02:48 am--------- 61.2- 58.6- 5.9-
2024-05-20 02:42 am--------- 61.2- 58.5- 5.9-
2024-05-20 02:36 am--------- 61.5- 58.8- 5.9-
2024-05-20 02:30 am--------- 61.5- 58.8- 5.9-
2024-05-20 02:24 am--------- 61.5- 58.6- 5.9-
2024-05-20 02:18 am--------- 61.7- 59.0- 5.9-
2024-05-20 02:12 am--------- 61.7- 58.6- 5.9-
2024-05-20 02:06 am--------- 62.1- 58.6- 5.9-
2024-05-20 02:00 am--------- 62.2- 58.6---
2024-05-20 01:54 am--------- 62.4- 58.8---
2024-05-20 01:48 am--------- 62.6- 58.6- 5.9-
2024-05-20 01:42 am--------- 62.8- 58.6- 5.9-
2024-05-20 01:36 am--------- 63.1- 59.0- 5.9-
2024-05-20 01:30 am--------- 63.3- 58.8- 5.9-
2024-05-20 01:24 am--------- 63.1- 59.0- 5.9-
2024-05-20 01:00 am--------- 63.7- 59.4- 5.9-
2024-05-20 12:54 am--------- 63.7- 59.2- 5.9-
2024-05-20 12:48 am--------- 64.0- 60.1- 5.9-
2024-05-20 12:42 am--------- 63.9- 59.7- 5.9-
2024-05-20 12:36 am--------- 63.7- 59.5- 5.9-
2024-05-20 12:30 am--------- 63.9- 59.4- 5.9-
2024-05-20 12:24 am--------- 63.9- 59.5- 5.9-
2024-05-20 12:18 am--------- 63.9- 59.5- 5.9-
2024-05-20 12:12 am--------- 64.0- 59.7- 5.9-
2024-05-20 12:06 am--------- 64.2- 60.3- 5.9-
2024-05-20 12:00 am--------- 64.2- 60.1- 5.9-
2024-05-19 11:54 pm--------- 64.4- 60.6- 5.9-
2024-05-19 11:48 pm--------- 64.4- 60.8- 5.9-
2024-05-19 11:42 pm--------- 64.4- 61.0- 5.9-
2024-05-19 11:36 pm--------- 64.6- 61.5- 5.9-
2024-05-19 11:30 pm--------- 64.9- 62.6- 5.9-
2024-05-19 11:24 pm--------- 65.3- 63.7- 5.9-
2024-05-19 11:00 pm--------- 66.7- 64.8- 5.9-
2024-05-19 10:54 pm--------- 67.1- 64.2- 5.9-
2024-05-19 10:48 pm--------- 67.1- 64.4- 5.9-
2024-05-19 10:42 pm--------- 67.5- 64.2- 5.9-
2024-05-19 10:36 pm--------- 67.6- 63.7- 5.9-
2024-05-19 10:30 pm--------- 67.6- 64.0- 5.9-
2024-05-19 10:24 pm--------- 66.9- 64.6- 5.9-
2024-05-19 10:18 pm--------- 67.5- 65.5- 5.9-
2024-05-19 10:12 pm--------- 67.1- 64.8- 5.9-
2024-05-19 10:06 pm--------- 67.1- 65.1- 5.9-
2024-05-19 10:00 pm--------- 67.3- 65.5- 5.9-
2024-05-19 09:54 pm--------- 67.3- 65.1- 5.9-
2024-05-19 09:48 pm--------- 67.3- 65.1- 5.9-
2024-05-19 09:42 pm--------- 67.3- 65.1- 5.9-
2024-05-19 09:36 pm--------- 67.5- 65.3- 5.9-
2024-05-19 08:48 pm--------- 68.7- 62.1- 5.9-
2024-05-19 08:42 pm--------- 68.4- 62.2- 5.9-
2024-05-19 08:36 pm--------- 68.5- 62.2- 5.9-
2024-05-19 08:30 pm--------- 68.9- 61.7- 5.9-
2024-05-19 08:24 pm--------- 69.3- 61.3- 5.9-
2024-05-19 07:30 pm--------- 69.6- 61.5- 5.9-
2024-05-19 07:24 pm--------- 69.6- 62.6- 5.9-
2024-05-19 06:18 pm--------- 69.3- 61.9- 5.9-
2024-05-19 06:12 pm--------- 69.3- 63.1- 5.9-
2024-05-19 06:06 pm--------- 68.9- 63.7- 5.9-
2024-05-19 06:00 pm--------- 68.9- 64.0- 5.9-
2024-05-19 05:54 pm--------- 68.7- 64.2- 5.9-
2024-05-19 05:48 pm--------- 68.7- 64.2- 5.9-
2024-05-19 05:42 pm--------- 68.9- 64.4- 5.9-
2024-05-19 05:36 pm--------- 68.9- 64.2- 5.9-
2024-05-19 05:30 pm--------- 68.7- 64.2- 0.8-
2024-05-19 05:24 pm--------- 68.9- 64.0- 0.3-
2024-05-19 05:18 pm--------- 68.7- 63.7- 2.2-
2024-05-19 05:12 pm--------- 68.7- 64.0- 5.9-
2024-05-19 05:06 pm--------- 69.3- 63.0- 5.9-
2024-05-19 05:00 pm--------- 69.8- 62.4- 5.9-
2024-05-19 04:54 pm--------- 69.8- 62.4- 5.9-
2024-05-19 04:48 pm--------- 69.6- 62.4- 5.9-
2024-05-19 04:42 pm--------- 69.1- 63.9- 5.9-
2024-05-19 04:36 pm--------- 69.1- 63.9- 5.9-
2024-05-19 04:30 pm--------- 68.7- 63.3- 5.9-
2024-05-19 04:24 pm--------- 68.5- 63.7- 5.9-
2024-05-19 04:18 pm--------- 68.5- 63.1- 5.9-
2024-05-19 04:12 pm--------- 68.4- 63.7- 5.9-
2024-05-19 04:06 pm--------- 68.9- 62.6- 5.9-
2024-05-19 03:30 pm--------- 67.8- 61.9- 5.9-
2024-05-19 03:24 pm--------- 67.8- 62.6- 5.9-
2024-05-19 03:18 pm--------- 67.6- 62.8- 5.9-
2024-05-19 03:12 pm--------- 67.6- 62.8- 5.9-
2024-05-19 03:06 pm--------- 67.8- 62.4- 5.9-
2024-05-19 02:48 pm--------- 67.6- 61.9- 5.9-
2024-05-19 02:42 pm--------- 67.6- 61.5- 5.9-
2024-05-19 02:36 pm--------- 67.8- 61.9- 5.9-
2024-05-19 02:30 pm--------- 67.8- 62.2- 5.9-
2024-05-19 02:24 pm--------- 67.3- 61.7- 5.9-
2024-05-19 02:18 pm--------- 66.9- 62.1- 5.9-
2024-05-19 02:12 pm--------- 66.7- 62.2- 5.9-
2024-05-19 02:06 pm--------- 66.6- 62.2- 5.9-
2024-05-19 02:00 pm--------- 66.6- 62.6- 5.9-
2024-05-19 01:54 pm--------- 66.6- 62.6- 5.9-
2024-05-19 01:48 pm--------- 66.7- 62.6- 5.9-
2024-05-19 01:42 pm--------- 66.9- 63.0- 5.9-
2024-05-19 01:36 pm--------- 67.1- 62.8- 5.9-
2024-05-19 01:30 pm--------- 67.1- 63.0- 5.9-
2024-05-19 01:24 pm--------- 67.3- 63.0- 0.2-